Time;durP1;ratioP1;P1;durP2;ratioP2;P2;SDS_P1;SDS_P2;PMS_P1;PMS_P2;Temp;Humidity;BMP_temperature;BMP_pressure;BME280_temperature;BME280_humidity;BME280_pressure;Samples;Min_cycle;Max_cycle;Signal;HPM_P1;HPM_P2
2023/05/07 00:00:28;;;;;;;;;;;15.30;55.10;;;11.15;100.00;95367.25;5034793;28;20291;-53
2023/05/07 00:02:54;;;;;;;;;;;15.30;55.20;;;11.11;100.00;95366.22;5053306;28;19920;-48
2023/05/07 00:05:20;;;;;;;;;;;15.30;55.20;;;11.09;100.00;95368.34;5042021;28;19916;-48
2023/05/07 00:07:47;;;;;;;;;;;15.30;55.30;;;11.10;100.00;95361.97;5053294;28;19931;-49
2023/05/07 00:10:12;;;;;;;;;;;15.30;55.30;;;11.09;100.00;95363.03;5055491;28;19920;-52
2023/05/07 00:12:38;;;;;;;;;;;15.30;55.40;;;11.04;100.00;95366.53;5042978;28;19916;-49
2023/05/07 00:15:06;;;;;;;;;;;15.30;56.10;;;11.01;100.00;95369.72;5046898;28;19908;-47
2023/05/07 00:17:33;;;;;;;;;;;15.20;55.50;;;11.03;100.00;95364.13;5050529;28;19909;-46
2023/05/07 00:19:59;;;;;;;;;;;15.20;55.50;;;11.02;100.00;95363.31;5047187;28;19912;-47
2023/05/07 00:22:24;;;;;;;;;;;15.20;55.60;;;11.01;100.00;95371.59;5055080;28;19957;-47
2023/05/07 00:24:50;;;;;;;;;;;15.20;55.70;;;10.98;100.00;95362.28;5051437;28;20427;-47
2023/05/07 00:27:16;;;;;;;;;;;15.20;55.70;;;10.94;100.00;95360.44;5055025;28;19909;-47
2023/05/07 00:29:42;;;;;;;;;;;15.10;55.70;;;10.92;100.00;95354.56;5048941;28;20359;-47
2023/05/07 00:32:08;;;;;;;;;;;15.10;55.80;;;10.90;100.00;95360.16;5053143;28;19908;-46
2023/05/07 00:34:34;;;;;;;;;;;15.10;55.90;;;10.88;100.00;95354.31;5055083;28;19950;-46
2023/05/07 00:37:01;;;;;;;;;;;15.10;55.90;;;10.88;100.00;95362.31;5042591;28;20390;-49
2023/05/07 00:39:27;;;;;;;;;;;15.10;56.00;;;10.84;100.00;95348.75;5054390;28;19909;-47
2023/05/07 00:41:52;;;;;;;;;;;15.10;56.10;;;10.79;100.00;95356.75;5051024;28;20320;-47
2023/05/07 00:44:18;;;;;;;;;;;15.00;56.10;;;10.81;100.00;95359.13;5054578;28;19908;-46
2023/05/07 00:46:45;;;;;;;;;;;15.00;56.10;;;10.75;100.00;95357.53;5036956;28;19912;-47
2023/05/07 00:49:11;;;;;;;;;;;15.00;56.20;;;10.79;100.00;95358.63;5053038;28;19946;-47
2023/05/07 00:51:37;;;;;;;;;;;15.00;56.20;;;10.77;100.00;95366.88;5054615;28;19912;-46
2023/05/07 00:54:03;;;;;;;;;;;15.00;56.30;;;10.77;100.00;95358.88;5044974;28;19916;-50
2023/05/07 00:56:29;;;;;;;;;;;14.90;56.30;;;10.75;100.00;95362.88;5051915;28;20373;-46
2023/05/07 00:58:56;;;;;;;;;;;14.90;56.40;;;10.70;100.00;95352.25;5054049;28;19924;-48
2023/05/07 01:01:22;;;;;;;;;;;14.90;56.40;;;10.74;100.00;95351.41;5034214;28;19916;-47
2023/05/07 01:03:48;;;;;;;;;;;14.90;56.40;;;10.68;100.00;95346.38;5054065;28;20371;-47
2023/05/07 01:06:16;;;;;;;;;;;14.90;56.50;;;10.67;100.00;95337.59;5032748;28;19915;-47
2023/05/07 01:08:43;;;;;;;;;;;14.80;56.50;;;10.67;100.00;95337.59;5036686;28;20512;-47
2023/05/07 01:11:11;;;;;;;;;;;14.80;56.60;;;10.62;100.00;95342.91;5033870;28;19909;-47
2023/05/07 01:13:39;;;;;;;;;;;14.80;56.60;;;10.59;100.00;95346.94;5014805;28;19921;-47
2023/05/07 01:16:06;;;;;;;;;;;14.80;56.70;;;10.55;100.00;95345.88;5051962;28;19908;-47
2023/05/07 01:18:32;;;;;;;;;;;14.80;56.80;;;10.53;100.00;95349.88;5034995;28;19908;-48
2023/05/07 01:21:00;;;;;;;;;;;14.70;56.80;;;10.50;100.00;95347.72;5053921;28;19908;-47
2023/05/07 01:23:28;;;;;;;;;;;14.70;56.80;;;10.51;100.00;95339.50;5031769;28;19913;-52
2023/05/07 01:25:55;;;;;;;;;;;14.80;56.90;;;10.50;100.00;95337.09;5027919;28;19916;-48
2023/05/07 01:28:21;;;;;;;;;;;14.70;56.90;;;10.49;100.00;95338.94;5050023;28;20367;-48
2023/05/07 01:30:56;;;;;;;;;;;14.70;57.00;;;10.51;100.00;95338.69;5046691;28;19914;-48
2023/05/07 01:33:23;;;;;;;;;;;14.70;57.60;;;10.49;100.00;95341.63;5016657;28;19939;-48
2023/05/07 01:35:53;;;;;;;;;;;14.70;57.10;;;10.45;100.00;95340.56;5041246;28;19934;-47
2023/05/07 01:38:23;;;;;;;;;;;14.70;57.10;;;10.44;100.00;95344.31;5015574;28;19916;-49
2023/05/07 01:40:48;;;;;;;;;;;14.70;57.20;;;10.41;100.00;95347.50;5044448;28;19920;-48
2023/05/07 01:43:15;;;;;;;;;;;14.60;57.10;;;10.39;100.00;95350.44;5045270;28;20275;-47
2023/05/07 01:45:41;;;;;;;;;;;14.60;57.20;;;10.33;100.00;95340.84;5052695;28;19908;-48
2023/05/07 01:48:10;;;;;;;;;;;14.60;57.20;;;10.37;100.00;95344.59;5051670;28;19915;-50
2023/05/07 01:50:38;;;;;;;;;;;14.60;57.30;;;10.36;100.00;95342.97;5051616;28;20305;-46
2023/05/07 01:53:04;;;;;;;;;;;14.60;57.30;;;10.38;100.00;95353.38;5036850;28;19912;-47
2023/05/07 01:55:29;;;;;;;;;;;14.60;57.40;;;10.33;100.00;95343.50;5019278;28;19909;-49
2023/05/07 01:57:55;;;;;;;;;;;14.50;57.30;;;10.30;100.00;95346.72;5049251;28;19931;-50
2023/05/07 02:00:21;;;;;;;;;;;14.50;57.40;;;10.29;100.00;95344.31;5040734;28;19909;-49
2023/05/07 02:02:47;;;;;;;;;;;14.50;57.40;;;10.23;100.00;95338.16;5033277;28;20406;-47
2023/05/07 02:05:13;;;;;;;;;;;14.50;57.40;;;10.19;100.00;95345.91;5049805;28;19908;-50
2023/05/07 02:07:39;;;;;;;;;;;14.50;57.50;;;10.18;100.00;95346.16;5049822;28;19916;-50
2023/05/07 02:10:06;;;;;;;;;;;14.40;57.50;;;10.16;100.00;95346.44;5043181;28;19909;-49
2023/05/07 02:12:31;;;;;;;;;;;14.40;57.60;;;10.13;100.00;95344.31;5041408;28;19909;-50
2023/05/07 02:14:57;;;;;;;;;;;14.40;57.70;;;10.09;100.00;95350.41;5043161;28;20370;-51
2023/05/07 02:17:23;;;;;;;;;;;14.40;57.70;;;10.06;100.00;95353.59;5032556;28;19923;-50
2023/05/07 02:19:48;;;;;;;;;;;14.30;57.60;;;10.01;100.00;95348.31;5052090;28;20274;-49
2023/05/07 02:22:15;;;;;;;;;;;14.30;57.70;;;9.98;100.00;95351.50;5052127;28;19946;-50
2023/05/07 02:24:41;;;;;;;;;;;14.30;57.70;;;9.92;100.00;95354.13;5047889;28;19915;-51
2023/05/07 02:27:06;;;;;;;;;;;14.30;57.80;;;9.96;100.00;95351.75;5052055;28;19912;-50
2023/05/07 02:29:32;;;;;;;;;;;14.20;57.90;;;9.99;100.00;95350.41;5046901;28;19912;-50
2023/05/07 02:31:58;;;;;;;;;;;14.20;57.90;;;9.95;100.00;95355.47;5049057;28;19912;-50
2023/05/07 02:34:24;;;;;;;;;;;14.20;57.90;;;9.91;100.00;95357.09;5049788;28;19997;-46
2023/05/07 02:36:49;;;;;;;;;;;14.10;57.90;;;9.86;100.00;95359.72;5026438;28;19909;-47
2023/05/07 02:39:16;;;;;;;;;;;14.10;58.00;;;9.81;100.00;95367.69;5051899;28;19908;-50
2023/05/07 02:41:42;;;;;;;;;;;14.10;58.00;;;9.77;100.00;95363.97;5046674;28;19913;-47
2023/05/07 02:44:08;;;;;;;;;;;14.10;58.10;;;9.75;100.00;95366.91;5041655;28;19908;-49
2023/05/07 02:46:34;;;;;;;;;;;14.10;58.20;;;9.77;100.00;95370.09;5051182;28;19931;-46
2023/05/07 02:49:00;;;;;;;;;;;14.10;58.20;;;9.73;100.00;95375.13;5049895;28;19917;-47
2023/05/07 02:51:27;;;;;;;;;;;14.00;58.20;;;9.66;100.00;95371.94;5051582;28;19908;-47
2023/05/07 02:53:52;;;;;;;;;;;14.00;58.30;;;9.66;100.00;95371.94;5043487;28;19964;-48
2023/05/07 02:56:18;;;;;;;;;;;13.90;58.20;;;9.59;100.00;95371.41;5044680;28;19959;-46
2023/05/07 02:58:44;;;;;;;;;;;13.90;58.40;;;9.60;100.00;95374.84;5051474;28;19958;-49
2023/05/07 03:01:10;;;;;;;;;;;13.90;58.40;;;9.53;100.00;95375.13;5028249;28;19928;-48
2023/05/07 03:03:36;;;;;;;;;;;13.90;58.40;;;9.47;100.00;95373.50;5061088;23;20345;-46
2023/05/07 03:06:01;;;;;;;;;;;13.80;58.40;;;9.50;100.00;95371.13;5036677;28;20294;-44
2023/05/07 03:08:27;;;;;;;;;;;13.80;58.50;;;9.47;100.00;95373.50;5031313;28;19908;-44
2023/05/07 03:10:53;;;;;;;;;;;13.70;58.50;;;9.42;100.00;95363.63;5031254;28;19962;-45
2023/05/07 03:13:19;;;;;;;;;;;13.70;58.60;;;9.44;100.00;95360.72;5022123;28;19944;-45
2023/05/07 03:15:45;;;;;;;;;;;13.70;58.60;;;9.44;100.00;95356.22;5031446;28;19952;-47
2023/05/07 03:18:11;;;;;;;;;;;13.70;58.70;;;9.41;100.00;95358.59;5037081;28;19916;-44
2023/05/07 03:20:37;;;;;;;;;;;13.70;58.70;;;9.41;100.00;95348.75;5031146;28;19917;-44
2023/05/07 03:23:03;;;;;;;;;;;13.70;58.80;;;9.42;100.00;95360.97;5030505;28;20310;-44
2023/05/07 03:25:31;;;;;;;;;;;13.70;58.90;;;9.40;100.00;95364.94;5030176;28;19916;-44
2023/05/07 03:27:57;;;;;;;;;;;13.70;59.00;;;9.39;100.00;95353.53;5031006;28;19931;-44
2023/05/07 03:30:23;;;;;;;;;;;13.70;59.00;;;9.39;100.00;95356.19;5032051;28;19912;-45
2023/05/07 03:32:49;;;;;;;;;;;13.60;58.90;;;9.36;100.00;95351.38;5030541;28;20375;-44
2023/05/07 03:35:15;;;;;;;;;;;13.60;59.00;;;9.35;100.00;95354.31;5030069;28;19909;-46
2023/05/07 03:37:40;;;;;;;;;;;13.60;59.10;;;9.32;100.00;95357.50;5030953;28;20329;-47
2023/05/07 03:40:09;;;;;;;;;;;13.60;59.10;;;9.30;100.00;95355.09;5031086;28;19962;-44
2023/05/07 03:42:34;;;;;;;;;;;13.60;59.10;;;9.29;100.00;95364.13;5019588;28;20363;-46
2023/05/07 03:45:00;;;;;;;;;;;13.50;59.20;;;9.29;100.00;95363.34;5030939;28;19966;-47
2023/05/07 03:47:26;;;;;;;;;;;13.50;59.30;;;9.27;100.00;95368.91;5030457;28;20283;-44
2023/05/07 03:49:53;;;;;;;;;;;13.50;59.90;;;9.25;100.00;95374.50;5031078;28;19909;-44
2023/05/07 03:52:23;;;;;;;;;;;13.50;59.30;;;9.25;100.00;95373.69;5030633;28;20291;-44
2023/05/07 03:54:49;;;;;;;;;;;13.50;59.40;;;9.23;100.00;95381.13;5030114;28;19912;-43
2023/05/07 03:57:15;;;;;;;;;;;13.50;59.40;;;9.14;100.00;95378.16;5030617;28;19916;-45
2023/05/07 03:59:41;;;;;;;;;;;13.50;59.40;;;9.17;100.00;95380.31;5030039;28;19918;-48
2023/05/07 04:02:06;;;;;;;;;;;13.50;59.40;;;9.17;100.00;95384.81;5030312;28;20000;-43
2023/05/07 04:04:32;;;;;;;;;;;13.50;59.40;;;9.21;100.00;95388.56;5030106;28;19917;-44
2023/05/07 04:06:59;;;;;;;;;;;13.50;59.50;;;9.21;100.00;95385.91;5029809;28;20439;-44
2023/05/07 04:09:25;;;;;;;;;;;13.50;59.50;;;9.16;100.00;95386.69;5030753;28;19908;-44
2023/05/07 04:11:51;;;;;;;;;;;13.50;59.50;;;9.18;100.00;95391.72;5029762;28;19912;-44
2023/05/07 04:14:17;;;;;;;;;;;13.50;59.60;;;9.19;100.00;95388.03;5029808;28;19966;-47
2023/05/07 04:16:42;;;;;;;;;;;13.50;59.60;;;9.18;100.00;95392.56;5030983;28;19908;-46
2023/05/07 04:19:08;;;;;;;;;;;13.50;59.60;;;9.20;100.00;95382.44;5042432;28;20362;-46
2023/05/07 04:21:34;;;;;;;;;;;13.50;59.60;;;9.22;100.00;95383.00;5030990;28;19909;-43
2023/05/07 04:24:00;;;;;;;;;;;13.50;60.30;;;9.27;100.00;95388.34;5028977;28;19921;-43
2023/05/07 04:26:26;;;;;;;;;;;13.60;59.80;;;9.35;100.00;95392.34;5030448;28;20007;-46
2023/05/07 04:28:51;;;;;;;;;;;13.60;59.80;;;9.40;100.00;95397.69;5030437;28;20003;-44
2023/05/07 04:31:17;;;;;;;;;;;13.70;60.60;;;9.46;100.00;95395.81;5029590;28;19992;-43
2023/05/07 04:33:43;;;;;;;;;;;13.80;59.80;;;9.50;100.00;95400.38;5033470;28;19913;-45
2023/05/07 04:36:10;;;;;;;;;;;13.90;59.80;;;9.54;100.00;95397.19;5032239;28;26895;-45
2023/05/07 04:38:37;;;;;;;;;;;14.00;59.80;;;9.58;100.00;95400.91;5034078;28;20380;-47
2023/05/07 04:41:05;;;;;;;;;;;14.00;59.80;;;9.59;100.00;95405.16;5034149;28;19916;-44
2023/05/07 04:43:31;;;;;;;;;;;14.10;59.70;;;9.70;100.00;95404.13;5032413;28;19909;-46
2023/05/07 04:45:56;;;;;;;;;;;14.20;59.70;;;9.85;100.00;95403.38;5034117;28;19915;-43
2023/05/07 04:48:22;;;;;;;;;;;14.40;59.70;;;9.98;100.00;95399.38;5032582;28;19915;-44
2023/05/07 04:50:51;;;;;;;;;;;14.50;59.70;;;10.10;100.00;95408.72;5034095;28;19913;-44
2023/05/07 04:53:18;;;;;;;;;;;14.60;59.70;;;10.17;100.00;95411.09;5030979;28;19921;-48
2023/05/07 04:55:45;;;;;;;;;;;14.70;59.60;;;10.27;100.00;95415.66;5033685;28;19924;-45
2023/05/07 04:58:11;;;;;;;;;;;14.80;59.60;;;10.35;100.00;95421.25;5034192;28;19912;-44
2023/05/07 05:00:39;;;;;;;;;;;14.90;59.50;;;10.45;100.00;95420.47;5030696;28;19920;-47
2023/05/07 05:03:07;;;;;;;;;;;15.10;59.50;;;10.53;100.00;95427.91;5026982;28;20008;-44
2023/05/07 05:05:33;;;;;;;;;;;15.20;59.50;;;10.62;100.00;95426.31;5012973;28;19912;-49
2023/05/07 05:07:59;;;;;;;;;;;15.30;59.40;;;10.73;100.00;95420.97;5013884;28;19913;-45
2023/05/07 05:10:25;;;;;;;;;;;15.40;59.30;;;10.80;100.00;95429.47;5013600;28;19917;-44
2023/05/07 05:12:51;;;;;;;;;;;15.50;59.40;;;10.86;100.00;95421.19;5019935;28;19917;-45
2023/05/07 05:15:17;;;;;;;;;;;15.60;59.30;;;11.00;100.00;95421.44;5013895;28;19936;-45
2023/05/07 05:17:43;;;;;;;;;;;15.70;59.30;;;11.15;100.00;95425.13;5008715;28;19914;-45
2023/05/07 05:20:10;;;;;;;;;;;15.80;59.20;;;11.28;100.00;95433.34;5006355;28;19920;-45
2023/05/07 05:22:36;;;;;;;;;;;16.00;59.20;;;11.44;100.00;95435.94;5013021;28;19963;-44
2023/05/07 05:25:02;;;;;;;;;;;16.10;59.20;;;11.64;100.00;95438.53;5012401;28;19909;-44
2023/05/07 05:27:29;;;;;;;;;;;16.30;59.10;;;11.83;100.00;95438.69;5013913;28;19916;-46
2023/05/07 05:29:55;;;;;;;;;;;16.50;59.10;;;12.00;100.00;95439.19;5000711;28;20394;-47
2023/05/07 05:32:21;;;;;;;;;;;16.70;59.00;;;12.14;100.00;95443.88;5013619;28;19909;-45
2023/05/07 05:34:47;;;;;;;;;;;16.80;59.00;;;12.29;100.00;95443.78;5013505;28;19952;-45
2023/05/07 05:37:12;;;;;;;;;;;17.00;58.90;;;12.38;100.00;95442.13;5012184;28;19909;-46
2023/05/07 05:39:38;;;;;;;;;;;17.20;58.90;;;12.53;100.00;95441.19;5013190;28;19913;-45
2023/05/07 05:42:04;;;;;;;;;;;17.30;58.80;;;12.60;100.00;95440.88;4994603;28;19913;-45
2023/05/07 05:44:30;;;;;;;;;;;17.50;58.70;;;12.71;100.00;95440.50;5012081;28;19919;-44
2023/05/07 05:46:57;;;;;;;;;;;17.60;58.60;;;12.79;100.00;95439.09;5013040;28;19915;-45
2023/05/07 05:49:23;;;;;;;;;;;17.80;58.50;;;12.94;100.00;95432.78;4999414;28;19912;-46
2023/05/07 05:51:49;;;;;;;;;;;17.90;58.30;;;13.03;100.00;95425.75;5012746;28;19978;-45
2023/05/07 05:54:15;;;;;;;;;;;18.10;58.20;;;13.11;100.00;95433.16;5011397;28;19924;-45
2023/05/07 05:56:41;;;;;;;;;;;18.20;58.10;;;13.25;100.00;95435.19;5012752;28;19981;-45
2023/05/07 05:59:07;;;;;;;;;;;18.30;58.00;;;13.36;100.00;95442.03;5012878;28;19909;-48
2023/05/07 06:01:33;;;;;;;;;;;18.40;57.90;;;13.46;100.00;95444.56;5011199;28;19999;-45
2023/05/07 06:03:59;;;;;;;;;;;18.50;57.80;;;13.57;99.17;95443.38;4991310;28;19975;-45
2023/05/07 06:06:25;;;;;;;;;;;18.70;57.70;;;13.75;99.26;95454.38;5011428;28;20390;-47
2023/05/07 06:08:51;;;;;;;;;;;18.80;57.60;;;13.87;98.39;95455.56;4994994;28;19912;-46
2023/05/07 06:11:17;;;;;;;;;;;18.90;57.40;;;13.98;94.90;95471.50;5011797;28;19915;-46
2023/05/07 06:13:42;;;;;;;;;;;19.10;57.30;;;14.12;92.92;95464.34;5010900;28;20253;-44
2023/05/07 06:16:08;;;;;;;;;;;19.30;57.20;;;14.37;90.66;95468.53;5012540;28;19909;-45
2023/05/07 06:18:35;;;;;;;;;;;19.60;57.00;;;14.69;87.86;95477.72;5011760;28;19909;-45
2023/05/07 06:21:02;;;;;;;;;;;19.90;56.70;;;14.91;83.96;95493.19;5012165;28;19913;-45
2023/05/07 06:23:27;;;;;;;;;;;20.30;56.50;;;15.21;82.75;95486.50;5010938;28;20103;-45
2023/05/07 06:25:53;;;;;;;;;;;20.60;56.20;;;15.42;78.91;95487.72;5012264;28;20272;-45
2023/05/07 06:28:19;;;;;;;;;;;20.90;55.90;;;15.52;77.29;95496.69;5004918;28;19909;-45
2023/05/07 06:30:44;;;;;;;;;;;21.10;55.60;;;15.42;77.68;95490.41;5014184;28;20363;-45
2023/05/07 06:33:10;;;;;;;;;;;21.10;55.30;;;15.44;77.16;95493.56;5012841;28;19916;-45
2023/05/07 06:35:36;;;;;;;;;;;21.20;55.00;;;15.42;77.08;95493.09;5013663;28;19913;-45
2023/05/07 06:38:02;;;;;;;;;;;21.10;54.70;;;15.47;76.83;95501.03;5015021;28;19952;-44
2023/05/07 06:40:27;;;;;;;;;;;21.00;54.60;;;15.47;76.61;95508.28;5011478;28;19909;-45
2023/05/07 06:42:53;;;;;;;;;;;20.90;54.50;;;15.40;76.71;95510.56;5008159;28;19908;-52
2023/05/07 06:45:20;;;;;;;;;;;20.90;54.30;;;15.41;77.25;95504.91;4977214;28;19909;-46
2023/05/07 06:47:46;;;;;;;;;;;20.80;54.20;;;15.42;77.38;95516.44;5011180;28;20007;-56
2023/05/07 06:50:12;;;;;;;;;;;20.80;54.10;;;15.28;77.44;95516.41;5010000;28;20008;-48
2023/05/07 06:52:38;;;;;;;;;;;20.80;54.10;;;15.26;77.76;95514.03;5009693;28;20326;-46
2023/05/07 06:55:05;;;;;;;;;;;20.70;54.00;;;15.39;78.00;95515.16;5010770;28;19909;-45
2023/05/07 06:57:30;;;;;;;;;;;20.70;53.90;;;15.52;77.63;95513.56;5011329;28;19909;-47
2023/05/07 06:59:56;;;;;;;;;;;20.80;54.00;;;15.65;77.59;95503.94;5010645;28;20272;-47
2023/05/07 07:02:22;;;;;;;;;;;20.90;53.90;;;15.72;76.62;95505.16;5015390;28;19912;-46
2023/05/07 07:04:48;;;;;;;;;;;21.00;53.90;;;15.88;76.59;95502.16;5011520;28;19924;-45
2023/05/07 07:07:13;;;;;;;;;;;21.20;53.80;;;16.03;75.90;95495.69;5013948;28;19908;-47
2023/05/07 07:09:39;;;;;;;;;;;21.30;53.70;;;16.16;74.67;95510.97;4993648;28;20316;-48
2023/05/07 07:12:05;;;;;;;;;;;21.40;53.50;;;16.28;74.41;95497.03;5009885;28;19959;-44
2023/05/07 07:14:31;;;;;;;;;;;21.60;53.40;;;16.42;73.08;95495.91;5019340;28;20386;-44
2023/05/07 07:16:56;;;;;;;;;;;21.80;53.20;;;16.70;72.60;95500.38;5011753;28;20402;-49
2023/05/07 07:19:22;;;;;;;;;;;22.20;53.00;;;17.04;72.53;95497.16;5022083;28;19909;-48
2023/05/07 07:21:48;;;;;;;;;;;22.50;52.70;;;17.38;69.40;95501.94;5011457;28;20441;-48
2023/05/07 07:24:20;;;;;;;;;;;22.90;52.50;;;17.53;69.11;95492.66;5011955;28;19948;-46
2023/05/07 07:26:47;;;;;;;;;;;23.20;52.20;;;17.89;67.61;95491.69;5011718;28;19999;-48
2023/05/07 07:29:12;;;;;;;;;;;23.50;51.90;;;18.18;65.96;95488.44;5011578;28;20278;-48
2023/05/07 07:31:38;;;;;;;;;;;23.80;51.60;;;18.46;65.91;95491.66;5007385;28;19909;-51
2023/05/07 07:34:04;;;;;;;;;;;24.20;51.30;;;18.84;64.11;95493.72;5009525;28;19936;-47
2023/05/07 07:36:30;;;;;;;;;;;24.70;51.00;;;19.33;62.19;95483.44;5010888;28;19912;-45
2023/05/07 07:38:56;;;;;;;;;;;25.20;50.70;;;19.74;60.83;95490.16;5011832;28;20398;-45
2023/05/07 07:41:21;;;;;;;;;;;25.60;50.20;;;20.10;59.45;95490.47;5011911;28;19955;-47
2023/05/07 07:43:47;;;;;;;;;;;26.00;49.70;;;20.42;58.33;95492.81;5014683;28;20398;-47
2023/05/07 07:46:13;;;;;;;;;;;26.40;49.30;;;20.61;57.54;95503.97;5012216;28;19909;-42
2023/05/07 07:48:38;;;;;;;;;;;26.70;49.00;;;20.86;56.38;95507.59;5016570;28;19960;-45
2023/05/07 07:51:04;;;;;;;;;;;27.00;48.50;;;21.17;56.37;95507.16;5010472;28;20454;-45
2023/05/07 07:53:30;;;;;;;;;;;27.30;48.20;;;21.36;55.40;95511.28;5009689;28;19921;-46
2023/05/07 07:55:56;;;;;;;;;;;27.70;47.90;;;21.60;53.74;95518.69;5005094;28;19996;-45
2023/05/07 07:58:22;;;;;;;;;;;27.90;47.30;;;21.64;53.42;95525.00;5010315;28;20410;-46
2023/05/07 08:00:48;;;;;;;;;;;28.10;46.70;;;21.84;53.22;95516.03;5009392;28;19913;-46
2023/05/07 08:03:16;;;;;;;;;;;28.30;46.30;;;21.86;52.43;95526.50;5009901;28;21217;-45
2023/05/07 08:05:42;;;;;;;;;;;28.40;46.40;;;21.90;51.64;95521.97;5010214;28;20015;-47
2023/05/07 08:08:09;;;;;;;;;;;28.40;45.40;;;22.06;52.82;95517.50;5013782;28;20290;-44
2023/05/07 08:10:37;;;;;;;;;;;28.50;45.10;;;22.22;51.32;95519.53;5014276;28;19994;-47
2023/05/07 08:13:04;;;;;;;;;;;28.60;45.10;;;22.25;51.35;95521.56;5013057;28;19929;-48
2023/05/07 08:15:30;;;;;;;;;;;28.70;44.80;;;22.33;50.08;95518.72;4997058;28;19913;-46
2023/05/07 08:17:59;;;;;;;;;;;28.80;44.60;;;22.58;49.63;95513.25;5012759;28;20279;-44
2023/05/07 08:20:26;;;;;;;;;;;28.90;44.40;;;22.73;49.84;95517.19;5013045;28;19909;-48
2023/05/07 08:22:51;;;;;;;;;;;29.00;44.30;;;22.64;51.38;95525.47;4997906;28;20395;-51
2023/05/07 08:25:17;;;;;;;;;;;29.10;44.20;;;22.54;49.24;95524.00;4990258;28;19938;-45
2023/05/07 08:27:44;;;;;;;;;;;29.30;44.00;;;22.72;50.40;95527.25;5012352;28;20047;-46
2023/05/07 08:30:11;;;;;;;;;;;29.50;43.80;;;22.64;48.33;95526.25;5011382;28;19913;-46
2023/05/07 08:32:37;;;;;;;;;;;29.60;43.40;;;22.62;48.54;95527.72;5010888;28;20379;-44
2023/05/07 08:35:03;;;;;;;;;;;29.70;43.00;;;22.67;48.90;95526.72;5011685;28;19916;-43
2023/05/07 08:37:28;;;;;;;;;;;29.70;42.70;;;22.95;49.57;95532.19;5010894;28;19936;-44
2023/05/07 08:39:54;;;;;;;;;;;29.80;42.50;;;23.26;48.08;95526.84;5012562;28;20378;-43
2023/05/07 08:42:24;;;;;;;;;;;29.80;42.50;;;22.96;47.91;95529.13;5013556;28;19916;-44
2023/05/07 08:44:55;;;;;;;;;;;29.90;42.40;;;23.02;46.94;95526.97;5012635;28;19924;-46
2023/05/07 08:47:25;;;;;;;;;;;29.90;41.90;;;23.11;47.60;95529.53;5013892;28;20419;-43
2023/05/07 08:49:53;;;;;;;;;;;29.90;41.60;;;23.37;47.53;95529.06;4996332;28;19920;-44
2023/05/07 08:52:19;;;;;;;;;;;30.00;41.60;;;23.56;45.63;95537.34;5014417;28;19992;-46
2023/05/07 08:54:45;;;;;;;;;;;30.20;41.40;;;23.40;45.33;95536.53;5013248;28;19936;-47
2023/05/07 08:57:11;;;;;;;;;;;30.30;40.90;;;23.49;46.36;95537.94;5013753;28;19909;-50
2023/05/07 08:59:37;;;;;;;;;;;30.40;40.50;;;23.63;45.74;95526.66;5015031;28;20007;-51
2023/05/07 09:02:02;;;;;;;;;;;30.60;40.50;;;23.12;46.57;95533.81;5024372;28;19995;-46
2023/05/07 09:04:28;;;;;;;;;;;30.60;39.80;;;22.98;47.38;95535.00;5035939;23;19970;-49
2023/05/07 09:06:55;;;;;;;;;;;30.50;39.40;;;23.23;46.28;95532.19;5038822;28;19913;-52
2023/05/07 09:09:22;;;;;;;;;;;30.40;39.50;;;23.50;46.08;95528.66;5041159;28;19909;-53
2023/05/07 09:11:47;;;;;;;;;;;30.40;39.60;;;23.95;46.55;95527.50;5036670;28;19995;-56
2023/05/07 09:14:13;;;;;;;;;;;30.50;39.70;;;24.15;45.56;95531.06;5042333;28;20429;-54
2023/05/07 09:16:39;;;;;;;;;;;30.70;39.60;;;24.45;44.30;95522.44;5049269;28;20005;-57
2023/05/07 09:19:05;;;;;;;;;;;30.80;39.40;;;24.77;43.83;95519.63;5042649;28;19912;-53
2023/05/07 09:21:31;;;;;;;;;;;31.20;39.40;;;25.10;43.79;95519.13;5051341;28;19909;-53
2023/05/07 09:23:57;;;;;;;;;;;31.50;39.10;;;25.31;42.29;95521.50;5036027;28;20008;-51
2023/05/07 09:26:25;;;;;;;;;;;31.80;38.80;;;25.53;42.34;95515.28;5034243;28;20006;-50
2023/05/07 09:28:51;;;;;;;;;;;32.10;38.60;;;25.69;41.62;95517.91;5018619;28;20330;-57
2023/05/07 09:31:17;;;;;;;;;;;32.40;38.40;;;25.93;41.23;95516.00;5065514;28;19934;-57
2023/05/07 09:33:43;;;;;;;;;;;32.60;38.20;;;26.31;41.29;95524.00;5042497;28;19923;-55
2023/05/07 09:36:10;;;;;;;;;;;32.90;38.00;;;26.18;40.68;95509.00;5039813;28;19908;-57
2023/05/07 09:38:37;;;;;;;;;;;33.20;37.50;;;26.02;41.29;95508.38;5035405;28;20007;-57
2023/05/07 09:41:11;;;;;;;;;;;33.40;37.20;;;26.30;40.90;95506.06;5023557;28;20376;-57
2023/05/07 09:43:39;;;;;;;;;;;33.60;37.00;;;26.55;40.13;95507.63;5046619;28;19920;-54
2023/05/07 09:46:13;;;;;;;;;;;33.80;36.50;;;26.91;40.41;95504.19;5042423;28;19908;-50
2023/05/07 09:48:42;;;;;;;;;;;34.00;36.60;;;26.88;39.83;95496.72;5036669;28;19908;-55
2023/05/07 09:51:31;;;;;;;;;;;34.30;36.30;;;27.30;39.85;95503.13;5033900;28;20424;-53
2023/05/07 09:54:00;;;;;;;;;;;34.50;36.30;;;26.88;39.05;95506.88;5038076;28;19916;-50
2023/05/07 09:56:27;;;;;;;;;;;34.60;36.00;;;26.86;39.65;95501.00;5035168;28;20000;-51
2023/05/07 09:58:55;;;;;;;;;;;34.50;35.60;;;26.44;39.94;95504.69;5033849;28;19912;-53
2023/05/07 10:01:23;;;;;;;;;;;34.40;35.10;;;26.34;40.04;95499.88;5028831;28;19909;-50
2023/05/07 10:03:51;;;;;;;;;;;34.20;35.00;;;26.46;40.09;95500.44;5041799;28;19963;-48
2023/05/07 10:06:18;;;;;;;;;;;34.20;35.20;;;26.60;40.01;95488.94;5038993;28;19916;-50
2023/05/07 10:08:44;;;;;;;;;;;34.20;35.30;;;26.61;39.74;95487.03;5046192;28;20194;-54
2023/05/07 10:11:10;;;;;;;;;;;34.10;35.10;;;26.69;40.16;95489.47;5026004;28;19916;-50
2023/05/07 10:13:37;;;;;;;;;;;34.10;35.10;;;26.70;40.40;95491.06;5041667;28;19913;-50
2023/05/07 10:16:05;;;;;;;;;;;34.00;35.10;;;26.91;39.59;95484.28;5043079;28;19951;-50
2023/05/07 10:18:32;;;;;;;;;;;34.20;35.10;;;26.85;39.39;95472.88;5052290;28;19991;-52
2023/05/07 10:21:20;;;;;;;;;;;34.30;35.00;;;26.51;40.00;95472.03;5067790;28;19911;-50
2023/05/07 10:23:59;;;;;;;;;;;34.30;34.60;;;26.75;39.90;95474.31;5068415;28;19940;-52
2023/05/07 10:26:29;;;;;;;;;;;34.30;34.60;;;26.95;40.38;95472.25;5038678;28;19909;-49
2023/05/07 10:29:18;;;;;;;;;;;34.30;34.60;;;26.97;39.65;95469.91;5032818;28;19913;-48
2023/05/07 10:32:22;;;;;;;;;;;34.40;34.60;;;26.95;39.76;95469.50;5017371;28;19908;-49
2023/05/07 10:34:54;;;;;;;;;;;34.60;34.40;;;27.49;39.42;95459.16;5033622;28;20011;-50
2023/05/07 10:37:22;;;;;;;;;;;34.90;34.00;;;27.58;39.02;95459.63;5037996;28;19908;-48
2023/05/07 10:39:49;;;;;;;;;;;35.10;33.80;;;27.54;38.15;95466.22;5033136;28;20379;-54
2023/05/07 10:42:15;;;;;;;;;;;35.30;33.70;;;27.30;40.05;95459.38;5040946;28;19912;-53
2023/05/07 10:44:41;;;;;;;;;;;35.30;33.60;;;27.27;41.28;95471.06;5064520;28;19908;-52
2023/05/07 10:47:08;;;;;;;;;;;35.20;33.40;;;27.02;40.97;95459.81;5061359;28;19919;-51
2023/05/07 10:49:55;;;;;;;;;;;35.10;33.50;;;27.00;40.61;95455.50;5042903;28;19908;-51
2023/05/07 10:52:24;;;;;;;;;;;34.90;33.60;;;27.24;40.46;95450.72;5039948;28;19908;-48
2023/05/07 10:55:24;;;;;;;;;;;34.80;33.80;;;27.34;39.88;95452.75;5050307;28;20014;-51
2023/05/07 10:57:51;;;;;;;;;;;34.80;33.90;;;26.81;41.58;95452.94;5072029;28;20057;-53
2023/05/07 11:00:16;;;;;;;;;;;34.70;33.50;;;26.86;40.36;95449.09;5056488;28;19962;-49
2023/05/07 11:03:05;;;;;;;;;;;34.50;33.50;;;26.57;41.29;95448.72;5039658;28;19908;-54
2023/05/07 11:05:33;;;;;;;;;;;34.30;33.40;;;26.64;40.52;95443.38;5038888;28;20358;-53
2023/05/07 11:08:02;;;;;;;;;;;34.10;33.60;;;26.73;41.66;95435.69;5072310;28;19916;-52
2023/05/07 11:10:58;;;;;;;;;;;34.00;33.80;;;26.38;41.24;95433.22;5054467;28;19998;-54
2023/05/07 11:13:48;;;;;;;;;;;33.90;33.90;;;26.18;41.01;95437.25;5050440;28;20291;-53